Time;durP1;ratioP1;P1;durP2;ratioP2;P2;SDS_P1;SDS_P2;PMS_P1;PMS_P2;Temp;Humidity;BMP_temperature;BMP_pressure;BME280_temperature;BME280_humidity;BME280_pressure;Samples;Min_cycle;Max_cycle;Signal;HPM_P1;HPM_P2
2023/02/04 00:01:22;;;;;;;6.20;1.97;;;;;;;7.06;73.46;97221.53;5025051;28;20217;-66
2023/02/04 00:03:47;;;;;;;6.90;2.30;;;;;;;7.25;73.02;97229.91;5025403;28;20171;-68
2023/02/04 00:06:13;;;;;;;4.40;1.87;;;;;;;7.18;72.67;97219.59;5025391;28;20250;-68
2023/02/04 00:08:38;;;;;;;3.63;2.40;;;;;;;7.13;73.10;97242.25;5025285;28;21021;-68
2023/02/04 00:11:04;;;;;;;3.47;2.33;;;;;;;7.07;72.60;97252.81;5025183;28;20877;-67
2023/02/04 00:13:29;;;;;;;3.33;2.17;;;;;;;7.16;72.64;97241.38;5025372;28;20176;-67
2023/02/04 00:15:55;;;;;;;2.40;2.00;;;;;;;7.15;73.18;97237.03;5025490;28;20186;-67
2023/02/04 00:18:20;;;;;;;3.70;2.43;;;;;;;7.15;72.82;97231.81;5025398;28;20280;-67
2023/02/04 00:20:46;;;;;;;3.17;2.20;;;;;;;7.22;72.37;97231.66;5024913;28;20183;-68
2023/02/04 00:23:11;;;;;;;2.20;2.00;;;;;;;7.16;72.51;97231.78;5025290;28;20171;-68
2023/02/04 00:25:37;;;;;;;8.33;2.67;;;;;;;7.24;72.40;97242.09;5025298;28;20720;-67
2023/02/04 00:28:02;;;;;;;3.43;2.50;;;;;;;7.17;72.89;97237.88;5016782;28;20184;-67
2023/02/04 00:30:29;;;;;;;3.70;3.23;;;;;;;7.26;72.47;97239.47;5005218;28;20180;-67
2023/02/04 00:32:55;;;;;;;4.50;3.30;;;;;;;7.30;72.38;97239.38;5005846;28;20211;-68
2023/02/04 00:35:22;;;;;;;5.60;2.47;;;;;;;7.28;72.29;97242.91;5005937;28;21002;-66
2023/02/04 00:37:47;;;;;;;4.10;2.70;;;;;;;7.22;72.39;97241.25;5006187;28;20423;-68
2023/02/04 00:40:13;;;;;;;2.60;2.13;;;;;;;7.34;71.86;97250.63;5005427;28;21156;-68
2023/02/04 00:42:38;;;;;;;3.23;2.80;;;;;;;7.41;71.52;97265.28;5005744;28;20195;-67
2023/02/04 00:45:04;;;;;;;3.23;2.80;;;;;;;7.30;71.97;97265.50;5005430;28;20192;-68
2023/02/04 00:47:29;;;;;;;4.30;3.70;;;;;;;7.39;71.38;97273.19;5005703;28;20211;-68
2023/02/04 00:49:54;;;;;;;4.40;2.93;;;;;;;7.38;71.17;97267.97;5007803;28;20179;-67
2023/02/04 00:52:20;;;;;;;3.60;3.17;;;;;;;7.42;71.05;97264.44;5024865;28;20341;-68
2023/02/04 00:54:45;;;;;;;4.70;3.60;;;;;;;7.51;70.23;97268.59;5025300;28;20913;-68
2023/02/04 00:57:11;;;;;;;3.60;2.77;;;;;;;7.50;70.84;97266.91;5028290;28;20649;-68
2023/02/04 00:59:36;;;;;;;3.80;2.80;;;;;;;7.51;70.31;97263.38;5028676;28;20171;-67
2023/02/04 01:02:02;;;;;;;3.80;2.70;;;;;;;7.61;69.99;97275.41;5028596;28;20357;-67
2023/02/04 01:04:28;;;;;;;3.30;2.77;;;;;;;7.43;70.40;97259.16;5028658;28;20625;-68
2023/02/04 01:06:53;;;;;;;3.57;2.30;;;;;;;7.50;70.73;97259.91;5028657;28;20187;-68
2023/02/04 01:09:19;;;;;;;2.60;2.40;;;;;;;7.58;71.21;97265.88;5028415;28;20410;-66
2023/02/04 01:11:45;;;;;;;5.73;2.70;;;;;;;7.58;71.71;97267.59;5028295;28;20223;-67
2023/02/04 01:14:11;;;;;;;2.50;2.27;;;;;;;7.39;73.06;97262.72;5028720;28;20182;-67
2023/02/04 01:16:36;;;;;;;5.10;2.50;;;;;;;7.53;72.73;97264.22;5028727;28;20746;-66
2023/02/04 01:19:01;;;;;;;2.67;2.20;;;;;;;7.40;73.46;97263.59;5028685;28;20175;-67
2023/02/04 01:21:27;;;;;;;2.43;2.13;;;;;;;7.36;74.11;97267.13;5028476;28;20191;-67
2023/02/04 01:23:52;;;;;;;7.67;2.50;;;;;;;7.39;74.33;97267.06;5028766;28;20625;-67
2023/02/04 01:26:18;;;;;;;3.77;2.30;;;;;;;7.33;74.97;97281.09;5028307;28;20306;-67
2023/02/04 01:28:44;;;;;;;4.40;2.60;;;;;;;7.32;74.72;97275.91;5028385;28;20244;-68
2023/02/04 01:31:09;;;;;;;3.30;2.07;;;;;;;7.34;74.56;97272.38;5027667;28;20943;-66
2023/02/04 01:33:35;;;;;;;2.70;1.80;;;;;;;7.26;74.94;97281.25;5027988;28;20175;-67
2023/02/04 01:36:00;;;;;;;2.90;1.77;;;;;;;7.33;74.13;97282.84;5028141;28;20171;-68
2023/02/04 01:38:26;;;;;;;3.93;1.83;;;;;;;7.25;74.68;97277.75;5027980;28;20603;-67
2023/02/04 01:40:51;;;;;;;2.23;1.80;;;;;;;7.28;74.56;97287.31;5027648;28;20191;-70
2023/02/04 01:43:17;;;;;;;2.97;2.10;;;;;;;7.30;74.53;97291.59;5028037;28;20214;-67
2023/02/04 01:45:44;;;;;;;4.43;1.70;;;;;;;7.26;74.55;97289.94;5027695;28;20187;-67
2023/02/04 01:48:11;;;;;;;4.40;1.80;;;;;;;7.27;74.62;97296.84;5028028;28;20175;-70
2023/02/04 01:50:37;;;;;;;3.63;2.20;;;;;;;7.37;74.28;97308.91;5027834;28;20875;-68
2023/02/04 01:53:03;;;;;;;3.53;1.87;;;;;;;7.32;72.24;97315.06;5027907;28;20437;-68
2023/02/04 01:55:31;;;;;;;2.20;1.57;;;;;;;7.28;72.72;97309.03;5027789;28;21128;-68
2023/02/04 01:57:57;;;;;;;2.67;2.10;;;;;;;7.36;72.50;97304.53;5026031;28;20241;-67
2023/02/04 02:00:29;;;;;;;3.73;2.10;;;;;;;7.45;71.67;97310.50;5027394;28;20449;-67
2023/02/04 02:02:55;;;;;;;9.50;2.20;;;;;;;7.22;72.42;97315.19;5027554;28;20954;-68
2023/02/04 02:05:30;;;;;;;3.70;2.57;;;;;;;7.32;70.68;97329.00;5027706;28;20571;-69
2023/02/04 02:07:57;;;;;;;5.53;2.50;;;;;;;7.39;68.52;97319.28;5027275;28;20228;-69
2023/02/04 02:10:23;;;;;;;6.27;3.87;;;;;;;7.42;68.41;97324.50;5027225;28;20505;-68
2023/02/04 02:12:49;;;;;;;6.63;2.87;;;;;;;7.41;67.83;97331.44;5027450;28;20617;-68
2023/02/04 02:15:15;;;;;;;4.73;2.43;;;;;;;7.41;67.50;97325.34;5027414;28;20271;-68
2023/02/04 02:17:41;;;;;;;5.43;2.33;;;;;;;7.38;67.39;97333.25;5027496;28;20421;-68
2023/02/04 02:20:12;;;;;;;3.33;2.40;;;;;;;7.48;67.83;97331.34;5027136;28;20418;-68
2023/02/04 02:23:13;;;;;;;7.10;2.33;;;;;;;7.57;67.46;97344.25;5027413;28;20191;-67
2023/02/04 02:25:39;;;;;;;7.00;2.00;;;;;;;7.45;67.01;97347.06;5027181;28;20410;-68
2023/02/04 02:28:10;;;;;;;4.17;2.10;;;;;;;7.45;66.89;97353.16;5018053;28;20449;-68
2023/02/04 02:30:35;;;;;;;4.43;2.40;;;;;;;7.35;66.70;97367.25;5007004;28;20622;-67
2023/02/04 02:33:01;;;;;;;3.20;2.07;;;;;;;7.39;66.66;97358.47;5007146;28;20521;-68
2023/02/04 02:35:26;;;;;;;2.73;2.03;;;;;;;7.26;66.84;97368.25;5007377;28;20267;-68
2023/02/04 02:37:52;;;;;;;5.27;2.33;;;;;;;7.29;67.53;97352.53;5006959;28;20180;-67
2023/02/04 02:40:18;;;;;;;4.40;2.47;;;;;;;7.43;67.13;97365.38;5006918;28;20180;-67
2023/02/04 02:42:47;;;;;;;3.03;2.10;;;;;;;7.41;66.99;97367.13;5007196;28;20193;-67
2023/02/04 02:45:21;;;;;;;2.70;1.97;;;;;;;7.29;66.43;97367.34;5006855;28;20212;-68
2023/02/04 02:47:46;;;;;;;5.00;2.13;;;;;;;7.41;66.38;97372.38;5007338;28;20470;-67
2023/02/04 02:50:16;;;;;;;6.07;2.50;;;;;;;7.37;67.13;97370.69;5007405;28;21208;-68
2023/02/04 02:52:41;;;;;;;5.30;2.10;;;;;;;7.49;66.54;97369.63;5007229;28;20206;-68
2023/02/04 02:55:14;;;;;;;5.40;2.07;;;;;;;7.41;67.12;97378.44;5007420;28;20427;-67
2023/02/04 02:57:39;;;;;;;5.53;1.70;;;;;;;7.42;67.00;97387.16;5007122;28;20239;-68
2023/02/04 03:00:22;;;;;;;2.83;1.97;;;;;;;7.43;67.43;97386.25;5006459;28;20415;-68
2023/02/04 03:02:56;;;;;;;4.60;2.40;;;;;;;7.38;67.46;97395.91;5006475;28;20319;-68
2023/02/04 03:05:23;;;;;;;3.97;2.00;;;;;;;7.55;67.10;97400.88;5006709;28;20831;-67
2023/02/04 03:07:49;;;;;;;6.70;2.40;;;;;;;7.46;67.17;97396.66;5006557;28;20481;-68
2023/02/04 03:10:16;;;;;;;3.47;2.10;;;;;;;7.38;67.34;97404.59;5006168;28;20423;-67
2023/02/04 03:12:43;;;;;;;3.13;1.90;;;;;;;7.37;67.39;97402.91;5006667;28;20743;-68
2023/02/04 03:15:09;;;;;;;2.63;2.20;;;;;;;7.37;67.86;97404.63;5004954;28;20920;-67
2023/02/04 03:17:34;;;;;;;4.57;2.20;;;;;;;7.47;67.11;97397.53;5006292;28;20422;-67
2023/02/04 03:20:01;;;;;;;3.63;1.97;;;;;;;7.42;67.50;97395.84;5005631;28;20168;-68
2023/02/04 03:22:26;;;;;;;2.87;2.00;;;;;;;7.34;68.12;97400.31;5006225;28;20239;-68
2023/02/04 03:24:52;;;;;;;4.93;2.70;;;;;;;7.36;67.95;97409.00;5006324;28;20765;-67
2023/02/04 03:27:18;;;;;;;2.40;2.00;;;;;;;7.35;68.19;97407.28;5009185;28;20175;-68
2023/02/04 03:29:44;;;;;;;4.07;2.10;;;;;;;7.37;68.38;97407.22;5025749;28;20203;-68
2023/02/04 03:32:10;;;;;;;3.17;2.37;;;;;;;7.27;68.58;97410.88;5025576;28;20708;-68
2023/02/04 03:34:36;;;;;;;3.73;2.00;;;;;;;7.34;68.53;97420.34;5026162;28;20438;-68
2023/02/04 03:37:01;;;;;;;4.20;2.17;;;;;;;7.51;66.83;97417.47;5026047;28;20167;-67
2023/02/04 03:39:26;;;;;;;5.80;2.50;;;;;;;7.34;67.48;97417.72;5025996;28;20171;-68
2023/02/04 03:41:52;;;;;;;7.30;2.20;;;;;;;7.35;67.65;97425.56;5025700;28;20195;-68
2023/02/04 03:44:18;;;;;;;5.10;2.87;;;;;;;7.42;66.91;97427.19;5025939;28;20605;-67
2023/02/04 03:46:44;;;;;;;8.50;3.27;;;;;;;7.40;66.88;97418.50;5026345;28;20179;-68
2023/02/04 03:49:09;;;;;;;6.23;2.50;;;;;;;7.35;66.97;97422.94;5026000;28;20410;-69
2023/02/04 03:51:34;;;;;;;8.60;2.40;;;;;;;7.43;66.75;97418.47;5026169;28;20207;-67
2023/02/04 03:54:00;;;;;;;6.10;2.90;;;;;;;7.38;66.43;97433.34;5026097;28;20623;-68
2023/02/04 03:56:25;;;;;;;5.07;2.50;;;;;;;7.37;66.41;97433.34;5025953;28;20171;-67
2023/02/04 03:58:51;;;;;;;8.40;2.70;;;;;;;7.56;65.79;97426.97;5025683;28;20193;-67
2023/02/04 04:01:16;;;;;;;7.93;2.87;;;;;;;7.40;66.30;97435.94;5025321;28;20188;-67
2023/02/04 04:03:41;;;;;;;7.40;3.27;;;;;;;7.40;65.98;97433.31;5025514;28;20581;-66
2023/02/04 04:06:08;;;;;;;4.50;3.10;;;;;;;7.50;65.69;97437.50;5025423;28;20603;-68
2023/02/04 04:08:34;;;;;;;5.13;2.90;;;;;;;7.47;66.09;97434.09;5025269;28;20283;-68
2023/02/04 04:11:00;;;;;;;4.90;2.57;;;;;;;7.37;66.15;97422.91;5024856;28;20496;-68
2023/02/04 04:13:25;;;;;;;4.13;2.90;;;;;;;7.25;66.60;97437.00;5025209;28;20862;-68
2023/02/04 04:15:51;;;;;;;6.33;3.47;;;;;;;7.32;66.49;97430.84;5025404;28;20293;-67
2023/02/04 04:18:16;;;;;;;5.00;2.60;;;;;;;7.29;66.84;97425.63;5025258;28;20233;-67
2023/02/04 04:20:41;;;;;;;6.33;2.53;;;;;;;7.31;66.86;97429.09;5025019;28;20218;-67
2023/02/04 04:23:07;;;;;;;4.83;3.40;;;;;;;7.21;66.93;97432.72;5025249;28;20734;-67
2023/02/04 04:25:32;;;;;;;9.53;3.73;;;;;;;7.26;66.69;97432.66;5025305;28;20676;-68
2023/02/04 04:27:58;;;;;;;5.33;2.53;;;;;;;7.17;66.48;97423.19;5017534;28;20196;-67
2023/02/04 04:30:23;;;;;;;4.70;2.87;;;;;;;7.15;67.22;97425.81;5006332;28;20728;-68
2023/02/04 04:32:49;;;;;;;6.87;3.27;;;;;;;7.20;66.08;97426.66;5010001;28;20219;-68
2023/02/04 04:35:14;;;;;;;5.30;3.23;;;;;;;7.16;66.49;97430.19;5010059;28;20799;-68
2023/02/04 04:37:40;;;;;;;5.93;3.17;;;;;;;7.19;66.33;97440.56;5010265;28;20254;-67
2023/02/04 04:40:05;;;;;;;7.37;3.77;;;;;;;7.03;67.06;97444.25;5010101;28;20172;-67
2023/02/04 04:42:31;;;;;;;8.23;3.10;;;;;;;7.03;67.41;97453.84;5009542;28;20198;-67
2023/02/04 04:44:56;;;;;;;12.93;5.10;;;;;;;7.02;67.40;97462.56;5009238;28;20192;-67
2023/02/04 04:47:21;;;;;;;5.97;2.73;;;;;;;7.03;67.34;97459.06;5009235;28;20258;-70
2023/02/04 04:49:47;;;;;;;11.93;4.03;;;;;;;7.00;67.13;97470.41;5008929;28;20203;-67
2023/02/04 04:52:12;;;;;;;11.50;4.43;;;;;;;7.06;67.07;97472.94;5008958;28;20212;-67
2023/02/04 04:54:38;;;;;;;8.50;3.60;;;;;;;7.22;66.22;97466.63;5009154;28;20176;-68
2023/02/04 04:57:03;;;;;;;7.63;2.70;;;;;;;7.08;66.49;97467.69;5009156;28;20269;-67
2023/02/04 04:59:29;;;;;;;7.40;2.87;;;;;;;7.00;67.23;97460.81;5008770;28;20172;-66
2023/02/04 05:01:54;;;;;;;9.83;2.83;;;;;;;7.02;66.97;97483.44;5008590;28;20192;-67
2023/02/04 05:04:20;;;;;;;7.87;2.70;;;;;;;6.95;67.15;97483.50;5008926;28;20180;-67
2023/02/04 05:06:45;;;;;;;6.20;3.23;;;;;;;7.00;66.88;97481.72;5009067;28;20172;-68
2023/02/04 05:09:11;;;;;;;7.67;3.37;;;;;;;6.98;67.10;97482.63;5008724;28;20175;-67
2023/02/04 05:11:36;;;;;;;7.17;2.20;;;;;;;6.98;66.13;97482.63;5008345;28;20215;-67
2023/02/04 05:14:01;;;;;;;4.33;3.00;;;;;;;6.71;65.55;97494.25;5008424;28;20193;-68
2023/02/04 05:16:27;;;;;;;4.77;3.00;;;;;;;6.81;65.32;97490.66;5008519;28;20187;-68
2023/02/04 05:18:52;;;;;;;8.53;3.30;;;;;;;6.84;65.50;97489.75;5011139;28;20661;-68
2023/02/04 05:21:18;;;;;;;8.30;4.50;;;;;;;6.82;65.78;97494.97;5014803;28;20206;-68
2023/02/04 05:23:43;;;;;;;6.20;3.63;;;;;;;6.70;65.23;97506.41;5022038;28;20183;-67
2023/02/04 05:26:09;;;;;;;5.10;2.50;;;;;;;6.75;65.74;97501.13;5023660;28;20248;-68
2023/02/04 05:28:34;;;;;;;6.90;2.97;;;;;;;6.71;64.41;97512.50;5017598;28;20184;-68
2023/02/04 05:31:00;;;;;;;7.23;3.40;;;;;;;6.82;63.53;97494.97;5025317;28;20543;-68
2023/02/04 05:33:25;;;;;;;8.87;3.00;;;;;;;6.76;63.35;97510.72;5020387;28;20195;-67
2023/02/04 05:36:25;;;;;;;10.80;3.10;;;;;;;6.56;62.49;97521.34;5651402;23;20263;-69
2023/02/04 05:38:51;;;;;;;9.80;3.10;;;;;;;6.60;61.86;97515.22;4972181;28;20527;-67
2023/02/04 05:41:16;;;;;;;3.83;2.77;;;;;;;6.63;61.74;97520.38;4967768;28;20456;-68
2023/02/04 05:43:42;;;;;;;5.83;3.10;;;;;;;6.63;61.67;97525.59;4970598;28;20660;-69
2023/02/04 05:46:07;;;;;;;8.20;2.97;;;;;;;6.60;61.23;97538.69;4966067;28;20324;-70
2023/02/04 05:48:33;;;;;;;6.20;3.63;;;;;;;6.66;61.31;97535.13;4950873;28;20262;-68
2023/02/04 05:50:58;;;;;;;6.07;3.33;;;;;;;6.65;61.21;97529.06;4956810;28;20284;-67
2023/02/04 05:53:24;;;;;;;8.33;3.70;;;;;;;6.60;61.84;97530.88;4962062;28;20189;-66
2023/02/04 05:55:49;;;;;;;13.37;6.40;;;;;;;6.48;61.82;97539.66;4965912;28;20185;-69
2023/02/04 05:58:14;;;;;;;7.07;3.40;;;;;;;6.47;61.22;97548.38;4969115;28;20176;-69
2023/02/04 06:00:40;;;;;;;7.70;3.60;;;;;;;6.46;61.30;97544.03;4969252;28;20184;-68
2023/02/04 06:03:05;;;;;;;13.57;3.40;;;;;;;6.49;61.53;97559.63;4969388;28;20814;-68
2023/02/04 06:05:31;;;;;;;8.20;2.90;;;;;;;6.50;61.88;97558.78;4967815;28;20240;-69
2023/02/04 06:07:56;;;;;;;8.40;3.20;;;;;;;6.51;62.09;97560.50;4968316;28;20198;-68
2023/02/04 06:10:22;;;;;;;7.03;2.80;;;;;;;6.57;61.69;97554.38;4969082;28;20177;-68
2023/02/04 06:12:47;;;;;;;5.80;3.40;;;;;;;6.55;61.57;97546.56;4969693;28;20209;-67
2023/02/04 06:15:13;;;;;;;9.73;3.00;;;;;;;6.63;61.28;97553.44;4969988;28;20595;-68
2023/02/04 06:17:39;;;;;;;6.60;3.10;;;;;;;6.58;60.79;97567.38;4969094;28;20194;-70
2023/02/04 06:20:06;;;;;;;8.20;4.00;;;;;;;6.46;61.26;97564.03;4968223;28;20270;-67
2023/02/04 06:22:31;;;;;;;5.80;3.40;;;;;;;6.54;61.16;97564.81;4969456;28;20409;-68
2023/02/04 06:24:58;;;;;;;11.57;3.33;;;;;;;6.49;61.67;97566.59;4969440;28;20417;-67
2023/02/04 06:27:23;;;;;;;12.13;3.47;;;;;;;6.53;61.73;97576.13;4966240;28;20205;-68
2023/02/04 06:29:50;;;;;;;10.80;3.40;;;;;;;6.54;61.23;97577.84;4968650;28;20441;-68
2023/02/04 06:32:16;;;;;;;10.90;3.50;;;;;;;6.52;61.77;97583.09;4968870;28;20209;-67
2023/02/04 06:34:42;;;;;;;6.33;3.03;;;;;;;6.42;61.75;97581.44;4969133;28;20435;-69
2023/02/04 06:37:07;;;;;;;4.67;2.83;;;;;;;6.28;62.02;97583.28;4968412;28;20449;-68
2023/02/04 06:39:33;;;;;;;9.47;3.30;;;;;;;6.40;61.62;97593.59;4968287;28;20256;-67
2023/02/04 06:41:58;;;;;;;11.60;3.80;;;;;;;6.42;61.57;97597.06;4969257;28;20185;-68
2023/02/04 06:44:24;;;;;;;6.00;3.27;;;;;;;6.38;61.30;97589.28;4969460;28;20181;-69
2023/02/04 06:46:49;;;;;;;9.17;3.30;;;;;;;6.35;61.18;97598.88;4968363;28;20239;-69
2023/02/04 06:49:15;;;;;;;14.83;4.63;;;;;;;6.27;61.24;97605.03;4968680;28;20243;-71
2023/02/04 06:51:40;;;;;;;9.30;4.40;;;;;;;6.10;62.04;97613.84;4963581;28;20298;-71
2023/02/04 06:54:05;;;;;;;49.83;9.53;;;;;;;6.23;61.45;97614.59;4969120;28;20735;-68
2023/02/04 06:56:31;;;;;;;19.87;5.60;;;;;;;6.34;60.95;97622.34;4968851;28;20189;-68
2023/02/04 06:58:56;;;;;;;16.70;3.60;;;;;;;6.45;60.52;97632.69;4968564;28;20649;-69
2023/02/04 07:01:22;;;;;;;5.90;3.40;;;;;;;6.41;60.52;97626.66;4982962;28;20208;-70
2023/02/04 07:03:47;;;;;;;10.27;3.17;;;;;;;6.12;60.81;97627.72;4968827;28;20224;-69
2023/02/04 07:06:13;;;;;;;7.77;3.00;;;;;;;6.24;60.44;97632.00;4968425;28;20228;-69
2023/02/04 07:08:38;;;;;;;11.80;3.30;;;;;;;6.32;60.12;97631.94;4968222;28;20177;-70
2023/02/04 07:11:04;;;;;;;10.00;2.87;;;;;;;6.33;59.49;97638.84;4968894;28;20197;-69
2023/02/04 07:13:29;;;;;;;5.83;2.80;;;;;;;6.31;59.76;97625.84;4969302;28;20185;-69
2023/02/04 07:15:55;;;;;;;10.23;2.93;;;;;;;6.35;59.36;97632.78;4967358;28;20261;-68
2023/02/04 07:18:20;;;;;;;7.13;2.50;;;;;;;6.43;59.31;97643.16;4967861;28;20169;-68
2023/02/04 07:20:46;;;;;;;6.30;3.10;;;;;;;6.57;58.79;97641.28;4968595;28;20271;-69
2023/02/04 07:23:11;;;;;;;11.07;3.57;;;;;;;6.55;59.35;97650.00;4968677;28;20172;-68
2023/02/04 07:25:37;;;;;;;6.00;2.70;;;;;;;6.55;59.08;97648.25;4968449;28;20178;-70
2023/02/04 07:28:04;;;;;;;5.80;2.60;;;;;;;6.67;58.78;97649.91;4966917;28;20205;-69
2023/02/04 07:30:30;;;;;;;7.63;2.60;;;;;;;6.65;59.26;97656.88;4959163;28;20990;-70
2023/02/04 07:32:56;;;;;;;7.27;3.10;;;;;;;6.63;59.87;97645.59;4968365;28;20461;-68
2023/02/04 07:35:21;;;;;;;7.67;2.80;;;;;;;6.60;59.73;97645.63;4966907;28;20865;-69
2023/02/04 07:37:47;;;;;;;3.93;2.70;;;;;;;6.64;59.35;97654.25;4967353;28;20193;-71
2023/02/04 07:40:12;;;;;;;6.43;2.70;;;;;;;6.68;58.56;97654.22;4970345;28;20232;-72
2023/02/04 07:42:38;;;;;;;5.43;2.67;;;;;;;6.68;58.79;97655.97;4969906;28;20165;-70
2023/02/04 07:45:03;;;;;;;16.43;3.10;;;;;;;6.87;58.31;97662.75;4967088;28;20404;-71
2023/02/04 07:47:29;;;;;;;10.33;2.70;;;;;;;6.83;58.08;97666.31;4966313;28;20229;-69
2023/02/04 07:49:57;;;;;;;6.90;2.77;;;;;;;7.00;57.50;97669.63;4968223;28;20306;-71
2023/02/04 07:52:23;;;;;;;5.03;2.50;;;;;;;7.02;57.15;97671.38;4968333;28;20287;-72
2023/02/04 07:54:49;;;;;;;7.97;3.50;;;;;;;7.05;57.58;97679.16;4968324;28;20405;-70
2023/02/04 07:57:15;;;;;;;124.80;12.80;;;;;;;7.08;57.58;97689.56;4966602;28;20870;-69
2023/02/04 07:59:40;;;;;;;25.27;4.80;;;;;;;7.06;58.13;97688.69;4960051;28;20413;-69
2023/02/04 08:02:06;;;;;;;15.63;4.47;;;;;;;7.24;57.55;97693.75;4967318;28;20166;-71
2023/02/04 08:04:32;;;;;;;14.63;3.37;;;;;;;7.14;58.02;97692.13;4966547;28;20591;-72
2023/02/04 08:06:57;;;;;;;24.50;4.90;;;;;;;7.11;57.69;97707.78;4965555;28;20456;-70
2023/02/04 08:09:25;;;;;;;13.40;3.60;;;;;;;7.04;58.12;97708.72;4967327;28;20193;-69
2023/02/04 08:11:51;;;;;;;11.60;4.07;;;;;;;7.05;58.10;97716.56;4965872;28;20283;-71
2023/02/04 08:14:17;;;;;;;27.43;6.07;;;;;;;6.97;57.62;97714.03;4967277;28;20420;-70
2023/02/04 08:16:42;;;;;;;26.67;4.97;;;;;;;6.95;58.21;97714.91;4965677;28;20209;-72
2023/02/04 08:19:08;;;;;;;28.23;5.17;;;;;;;7.01;58.38;97714.84;4967172;28;20173;-70
2023/02/04 08:21:33;;;;;;;21.50;4.87;;;;;;;6.98;58.79;97720.94;4966943;28;20561;-70
2023/02/04 08:23:59;;;;;;;17.67;3.90;;;;;;;6.93;58.69;97730.56;4967169;28;20170;-69
2023/02/04 08:26:24;;;;;;;8.13;3.10;;;;;;;6.84;58.96;97724.56;4964916;28;20650;-70
2023/02/04 08:28:49;;;;;;;11.10;4.43;;;;;;;7.01;58.38;97727.88;4965724;28;20241;-68
2023/02/04 08:31:15;;;;;;;19.90;3.80;;;;;;;6.97;58.85;97726.22;4966469;28;20265;-70
2023/02/04 08:33:40;;;;;;;6.20;2.83;;;;;;;6.88;58.52;97721.06;4965556;28;20190;-68
2023/02/04 08:36:07;;;;;;;8.03;3.17;;;;;;;6.84;58.93;97730.63;4965212;28;20232;-69
2023/02/04 08:38:33;;;;;;;9.37;2.90;;;;;;;6.98;58.31;97730.53;4961547;28;20574;-69
2023/02/04 08:40:58;;;;;;;13.03;4.40;;;;;;;7.09;58.42;97728.72;4966676;28;20508;-68
2023/02/04 08:43:25;;;;;;;10.13;3.80;;;;;;;7.04;57.49;97727.00;4967280;28;20177;-69
2023/02/04 08:45:50;;;;;;;6.43;3.20;;;;;;;7.22;57.03;97729.44;4964301;28;20178;-70
2023/02/04 08:48:16;;;;;;;14.53;5.87;;;;;;;7.37;57.08;97724.09;4965753;28;20622;-68
2023/02/04 08:50:41;;;;;;;7.30;2.90;;;;;;;7.38;56.48;97731.03;4966540;28;20240;-68
2023/02/04 08:53:07;;;;;;;10.43;3.10;;;;;;;7.41;56.17;97728.38;4967606;28;20774;-68
2023/02/04 08:55:32;;;;;;;35.83;5.57;;;;;;;7.38;55.18;97722.34;4969895;28;20256;-69
2023/02/04 08:58:00;;;;;;;11.53;3.03;;;;;;;7.35;55.22;97733.69;4967041;28;20194;-69
2023/02/04 09:00:26;;;;;;;7.00;3.00;;;;;;;7.38;55.32;97738.00;4968309;28;20181;-69
2023/02/04 09:02:51;;;;;;;10.87;3.40;;;;;;;7.32;55.12;97733.72;4967703;28;21125;-70
2023/02/04 09:05:17;;;;;;;9.70;3.40;;;;;;;7.14;55.12;97739.13;4967629;28;20436;-69
2023/02/04 09:07:43;;;;;;;6.27;3.30;;;;;;;7.29;54.63;97741.56;4967203;28;20551;-69
2023/02/04 09:10:08;;;;;;;5.23;2.60;;;;;;;7.21;54.43;97746.88;4967084;28;20174;-68
2023/02/04 09:12:34;;;;;;;10.30;2.70;;;;;;;6.97;55.07;97753.16;4967070;28;20209;-69
2023/02/04 09:14:59;;;;;;;8.23;3.10;;;;;;;7.06;55.78;97751.34;4967314;28;20540;-68
2023/02/04 09:17:25;;;;;;;8.87;3.93;;;;;;;7.00;56.00;97750.53;4968755;28;20874;-70
2023/02/04 09:19:50;;;;;;;6.97;3.03;;;;;;;7.46;54.68;97748.38;4970925;28;20177;-69
2023/02/04 09:22:16;;;;;;;9.27;3.00;;;;;;;7.96;53.19;97746.94;4970680;28;20245;-68
2023/02/04 09:24:42;;;;;;;9.03;3.73;;;;;;;7.97;52.76;97746.09;4970852;28;20908;-69
2023/02/04 09:27:07;;;;;;;7.07;2.57;;;;;;;8.01;52.60;97746.03;4970216;28;20231;-70
2023/02/04 09:29:33;;;;;;;12.40;3.53;;;;;;;8.49;51.86;97745.44;4970561;28;20638;-69
2023/02/04 09:31:58;;;;;;;6.83;3.10;;;;;;;8.04;50.96;97751.22;4970449;28;20610;-70
2023/02/04 09:34:24;;;;;;;11.50;3.37;;;;;;;7.98;52.42;97758.25;4971026;28;20173;-70
2023/02/04 09:36:49;;;;;;;22.87;3.70;;;;;;;7.89;51.78;97759.25;4972066;28;20197;-70
2023/02/04 09:39:15;;;;;;;34.80;6.63;;;;;;;7.57;52.63;97764.81;4976183;28;20924;-68
2023/02/04 09:41:41;;;;;;;11.93;4.00;;;;;;;7.81;52.04;97768.91;4975812;28;20170;-68
2023/02/04 09:44:13;;;;;;;7.63;2.60;;;;;;;8.11;51.74;97766.84;4974597;28;20173;-69
2023/02/04 09:46:40;;;;;;;6.43;2.57;;;;;;;8.27;50.57;97768.38;4971573;28;20189;-69
2023/02/04 09:49:09;;;;;;;14.60;3.27;;;;;;;8.34;50.07;97772.66;4969810;28;20917;-69
2023/02/04 09:51:34;;;;;;;12.83;3.20;;;;;;;8.47;50.12;97768.13;4969986;28;20485;-69
2023/02/04 09:54:15;;;;;;;10.90;3.83;;;;;;;8.70;49.16;97775.69;4969680;28;20428;-68
2023/02/04 09:56:41;;;;;;;22.83;6.00;;;;;;;8.56;49.88;97768.00;4969761;28;20197;-69
2023/02/04 09:59:17;;;;;;;128.80;19.73;;;;;;;8.65;50.12;97770.50;4969870;28;20471;-69
2023/02/04 10:01:43;;;;;;;54.97;6.70;;;;;;;8.65;49.42;97774.88;4969863;28;20409;-68
2023/02/04 10:04:11;;;;;;;11.20;3.53;;;;;;;8.61;50.63;97775.81;4970256;28;20421;-70
2023/02/04 10:06:38;;;;;;;11.50;3.73;;;;;;;8.56;50.59;97777.63;4969363;28;20515;-70
2023/02/04 10:09:03;;;;;;;8.63;3.03;;;;;;;8.76;50.85;97777.31;4969875;28;20485;-70
2023/02/04 10:11:33;;;;;;;9.23;3.00;;;;;;;8.84;49.94;97775.47;4969628;28;20456;-69
2023/02/04 10:13:59;;;;;;;40.37;9.57;;;;;;;8.99;49.45;97772.59;4969764;28;20661;-68
2023/02/04 10:16:31;;;;;;;16.10;4.70;;;;;;;8.82;50.42;97775.50;4969238;28;20492;-68
2023/02/04 10:19:11;;;;;;;24.33;4.40;;;;;;;8.85;50.95;97785.91;4969635;28;20196;-69
2023/02/04 10:21:37;;;;;;;14.43;3.70;;;;;;;9.12;51.34;97781.16;4969482;28;20417;-68
2023/02/04 10:24:06;;;;;;;23.73;5.13;;;;;;;9.05;51.18;97776.91;4969603;28;21304;-69
2023/02/04 10:26:32;;;;;;;7.17;3.03;;;;;;;9.04;50.37;97783.00;4969279;28;20204;-70
2023/02/04 10:29:19;;;;;;;17.13;4.77;;;;;;;8.88;51.40;97777.13;4969353;28;20448;-69
2023/02/04 10:31:50;;;;;;;23.13;4.60;;;;;;;8.76;51.09;97772.09;4969037;28;20779;-69
2023/02/04 10:34:21;;;;;;;7.07;3.27;;;;;;;8.29;52.14;97782.28;4969142;28;20433;-68
2023/02/04 10:36:52;;;;;;;19.17;4.47;;;;;;;8.50;52.33;97781.16;4968936;28;20918;-70
2023/02/04 10:39:24;;;;;;;9.80;2.30;;;;;;;8.63;51.06;97782.75;4969095;28;20424;-68
2023/02/04 10:41:55;;;;;;;9.07;3.90;;;;;;;8.56;51.42;97775.00;4969261;28;20409;-69
2023/02/04 10:44:32;;;;;;;48.27;6.37;;;;;;;8.32;51.71;97787.50;4968935;28;20441;-69
2023/02/04 10:46:59;;;;;;;10.43;3.57;;;;;;;8.13;51.93;97780.75;4968261;28;20531;-69
2023/02/04 10:49:25;;;;;;;54.30;8.77;;;;;;;8.38;51.51;97778.69;4968649;28;20773;-69
2023/02/04 10:51:51;;;;;;;21.27;4.43;;;;;;;8.42;51.77;97762.09;4968487;28;20460;-68
2023/02/04 10:54:29;;;;;;;20.27;4.40;;;;;;;8.55;51.18;97768.03;4968431;28;20284;-69
2023/02/04 10:57:15;;;;;;;10.43;4.20;;;;;;;8.26;51.45;97775.34;4968214;28;21027;-69
2023/02/04 10:59:42;;;;;;;17.80;4.93;;;;;;;8.48;51.97;97767.28;4968084;28;20444;-69
2023/02/04 11:02:26;;;;;;;15.97;3.27;;;;;;;8.46;51.43;97775.13;4968576;28;20413;-68
2023/02/04 11:04:51;;;;;;;16.13;3.60;;;;;;;8.52;51.85;97773.31;4968522;28;20409;-70
2023/02/04 11:07:18;;;;;;;10.17;4.43;;;;;;;8.49;51.04;97766.38;4967973;28;20779;-68
2023/02/04 11:09:44;;;;;;;7.67;2.57;;;;;;;8.47;51.69;97771.63;4968880;28;20191;-69
2023/02/04 11:12:35;;;;;;;7.80;3.30;;;;;;;8.59;51.28;97765.34;4968580;28;20551;-69
2023/02/04 11:15:01;;;;;;;8.77;3.20;;;;;;;8.68;51.29;97770.44;4968411;28;20173;-68
2023/02/04 11:17:31;;;;;;;5.80;3.00;;;;;;;8.89;50.54;97755.31;4967949;28;20558;-69
2023/02/04 11:19:58;;;;;;;9.67;3.30;;;;;;;8.91;49.57;97756.16;4968526;28;20184;-69
2023/02/04 11:22:52;;;;;;;7.73;2.40;;;;;;;8.52;50.33;97762.84;4968552;28;20781;-68
2023/02/04 11:25:36;;;;;;;6.23;3.10;;;;;;;8.47;51.15;97757.69;4968464;28;20423;-69
2023/02/04 11:28:25;;;;;;;12.60;3.70;;;;;;;8.61;51.02;97760.97;4968188;28;20515;-70
2023/02/04 11:31:11;;;;;;;9.07;2.70;;;;;;;8.72;51.00;97750.34;4968222;28;20955;-69
2023/02/04 11:33:41;;;;;;;8.37;2.43;;;;;;;8.42;52.13;97754.25;4948171;28;20456;-69
2023/02/04 11:36:10;;;;;;;13.90;3.23;;;;;;;8.64;51.40;97753.06;4947928;28;20880;-69
2023/02/04 11:38:37;;;;;;;6.37;2.93;;;;;;;8.84;50.50;97744.06;4947373;28;20508;-68